Time;durP1;ratioP1;P1;durP2;ratioP2;P2;SDS_P1;SDS_P2;PMS_P1;PMS_P2;Temp;Humidity;BMP_temperature;BMP_pressure;BME280_temperature;BME280_humidity;BME280_pressure;Samples;Min_cycle;Max_cycle;Signal;HPM_P1;HPM_P2
2022/12/18 00:01:08;;;;;;;;;;;;;;;6.40;68.86;100516.56;4962632;28;4231;-80
2022/12/18 00:03:34;;;;;;;;;;;;;;;6.27;68.78;100506.59;4948712;28;4290;-79
2022/12/18 00:06:00;;;;;;;;;;;;;;;6.30;68.74;100500.84;4961597;28;4257;-79
2022/12/18 00:08:26;;;;;;;;;;;;;;;6.39;68.63;100498.88;4960533;28;4236;-80
2022/12/18 00:10:53;;;;;;;;;;;;;;;6.33;68.78;100493.28;4947796;28;3991;-79
2022/12/18 00:13:19;;;;;;;;;;;;;;;6.36;68.60;100490.22;4966223;28;4113;-80
2022/12/18 00:15:45;;;;;;;;;;;;;;;6.36;68.49;100479.50;4936029;28;4141;-79
2022/12/18 00:18:12;;;;;;;;;;;;;;;6.42;68.67;100485.94;4943962;28;4248;-79
2022/12/18 00:20:38;;;;;;;;;;;;;;;6.42;68.76;100471.72;4960211;28;4412;-79
2022/12/18 00:23:04;;;;;;;;;;;;;;;6.41;68.62;100478.09;4959233;28;3906;-79
2022/12/18 00:25:30;;;;;;;;;;;;;;;6.45;68.44;100476.69;4947411;28;4323;-80
2022/12/18 00:27:57;;;;;;;;;;;;;;;6.40;68.89;100479.13;4959587;28;4275;-79
2022/12/18 00:30:23;;;;;;;;;;;;;;;6.45;68.72;100474.03;4940024;28;4548;-80
2022/12/18 00:32:50;;;;;;;;;;;;;;;6.37;68.76;100467.78;4948120;28;4093;-79
2022/12/18 00:35:16;;;;;;;;;;;;;;;6.47;68.48;100464.78;4955826;28;4294;-79
2022/12/18 00:37:43;;;;;;;;;;;;;;;6.51;68.50;100462.53;4944230;28;4262;-80
2022/12/18 00:40:10;;;;;;;;;;;;;;;6.48;68.37;100465.59;4943216;28;4303;-79
2022/12/18 00:45:27;;;;;;;;;;;;;;;6.47;68.30;100458.56;4933554;28;4376;-78
2022/12/18 00:47:54;;;;;;;;;;;;;;;6.53;68.35;100466.69;4952570;28;4148;-79
2022/12/18 00:50:20;;;;;;;;;;;;;;;6.50;68.62;100469.75;4958357;28;4046;-80
2022/12/18 00:52:47;;;;;;;;;;;;;;;6.56;68.26;100473.50;4962659;28;4368;-80
2022/12/18 00:55:13;;;;;;;;;;;;;;;6.54;68.39;100476.34;4958592;28;4225;-80
2022/12/18 00:57:39;;;;;;;;;;;;;;;6.54;68.16;100481.69;4942609;28;4199;-80
2022/12/18 01:00:05;;;;;;;;;;;;;;;6.49;68.24;100484.13;4960868;28;4011;-79
2022/12/18 01:02:32;;;;;;;;;;;;;;;6.52;68.54;100483.72;4956310;28;3964;-80
2022/12/18 01:05:00;;;;;;;;;;;;;;;6.50;68.76;100477.78;4944477;28;4023;-80
2022/12/18 01:07:26;;;;;;;;;;;;;;;6.53;68.27;100473.84;4960752;28;4052;-79
2022/12/18 01:09:52;;;;;;;;;;;;;;;6.54;68.21;100479.03;4954941;28;4238;-80
2022/12/18 01:12:19;;;;;;;;;;;;;;;6.54;68.46;100476.34;4964875;28;4069;-80
2022/12/18 01:14:45;;;;;;;;;;;;;;;6.48;68.51;100471.78;4942832;28;3976;-79
2022/12/18 01:17:11;;;;;;;;;;;;;;;6.41;69.00;100470.06;4944276;28;4057;-79
2022/12/18 01:19:38;;;;;;;;;;;;;;;6.40;69.02;100471.91;4948555;28;4047;-79
2022/12/18 01:22:04;;;;;;;;;;;;;;;6.43;69.06;100474.19;4963722;28;4108;-77
2022/12/18 01:24:30;;;;;;;;;;;;;;;6.40;69.21;100477.25;4959837;28;4024;-80
2022/12/18 01:26:57;;;;;;;;;;;;;;;6.49;68.57;100484.13;4960017;28;4160;-78
2022/12/18 01:29:24;;;;;;;;;;;;;;;6.49;68.96;100483.28;4945153;28;4038;-78
2022/12/18 01:31:50;;;;;;;;;;;;;;;6.51;68.37;100470.56;4935281;28;3360;-79
2022/12/18 01:34:16;;;;;;;;;;;;;;;6.49;68.98;100472.59;4961533;28;4609;-79
2022/12/18 01:36:42;;;;;;;;;;;;;;;6.41;69.15;100464.72;4960852;28;4244;-78
2022/12/18 01:39:09;;;;;;;;;;;;;;;6.40;69.00;100449.69;4960415;28;4124;-79
2022/12/18 01:44:15;;;;;;;;;;;;;;;6.43;68.96;100451.97;4943734;28;4411;-79
2022/12/18 01:46:41;;;;;;;;;;;;;;;6.52;68.54;100448.94;4957838;28;4145;-79
2022/12/18 01:49:08;;;;;;;;;;;;;;;6.42;68.64;100439.63;4943322;28;4164;-79
2022/12/18 01:51:34;;;;;;;;;;;;;;;6.35;69.24;100440.41;4945684;28;3871;-79
2022/12/18 01:54:00;;;;;;;;;;;;;;;6.32;69.02;100440.81;4961303;28;4014;-78
2022/12/18 01:56:27;;;;;;;;;;;;;;;6.47;68.73;100438.03;4944004;28;4142;-78
2022/12/18 01:58:53;;;;;;;;;;;;;;;6.36;68.98;100423.31;4963783;28;4091;-79
2022/12/18 02:01:19;;;;;;;;;;;;;;;6.42;68.75;100426.25;4962210;28;4076;-79
2022/12/18 02:03:46;;;;;;;;;;;;;;;6.31;69.25;100428.44;4965553;28;3953;-79
2022/12/18 02:06:12;;;;;;;;;;;;;;;6.40;68.74;100430.97;4948753;29;4293;-79
2022/12/18 02:08:38;;;;;;;;;;;;;;;6.35;68.98;100423.50;4943565;28;4283;-78
2022/12/18 02:11:04;;;;;;;;;;;;;;;6.28;69.45;100420.78;4960609;28;3647;-78
2022/12/18 02:13:31;;;;;;;;;;;;;;;6.33;69.32;100415.69;4972378;28;3752;-78
2022/12/18 02:15:57;;;;;;;;;;;;;;;6.35;69.39;100407.47;4960881;28;3848;-78
2022/12/18 02:18:23;;;;;;;;;;;;;;;6.34;69.17;100400.47;4958880;28;4085;-79
2022/12/18 02:20:49;;;;;;;;;;;;;;;6.34;69.13;100414.66;4947607;28;3873;-78
2022/12/18 02:23:16;;;;;;;;;;;;;;;6.23;69.53;100403.69;4963606;28;4212;-78
2022/12/18 02:25:42;;;;;;;;;;;;;;;6.31;69.16;100400.84;4964693;28;4071;-78
2022/12/18 02:28:08;;;;;;;;;;;;;;;6.32;69.59;100406.03;4962964;28;3785;-79
2022/12/18 02:30:35;;;;;;;;;;;;;;;6.30;69.48;100401.88;4961395;28;4506;-80
2022/12/18 02:33:01;;;;;;;;;;;;;;;6.22;69.46;100402.84;4943255;28;4097;-79
2022/12/18 02:35:27;;;;;;;;;;;;;;;6.24;69.67;100416.03;4957842;28;4137;-78
2022/12/18 02:37:54;;;;;;;;;;;;;;;6.30;69.43;100402.72;4945517;28;4060;-78
2022/12/18 02:40:20;;;;;;;;;;;;;;;6.30;68.91;100413.41;4959121;28;4250;-79
2022/12/18 02:42:46;;;;;;;;;;;;;;;6.26;69.47;100419.34;4963614;28;4119;-79
2022/12/18 02:45:12;;;;;;;;;;;;;;;6.37;69.32;100424.16;4958788;28;4016;-79
2022/12/18 02:47:39;;;;;;;;;;;;;;;6.34;69.02;100422.69;4941266;28;4075;-77
2022/12/18 02:50:05;;;;;;;;;;;;;;;6.37;69.25;100413.44;4944851;28;4118;-79
2022/12/18 02:52:31;;;;;;;;;;;;;;;6.39;69.15;100422.13;4959047;28;4168;-79
2022/12/18 02:54:57;;;;;;;;;;;;;;;6.33;69.42;100429.06;4961374;28;5854;-79
2022/12/18 02:57:24;;;;;;;;;;;;;;;6.29;69.22;100432.31;4958706;28;4153;-79
2022/12/18 02:59:50;;;;;;;;;;;;;;;6.29;69.29;100429.63;4960109;28;3830;-78
2022/12/18 03:02:16;;;;;;;;;;;;;;;6.35;69.24;100421.69;4944749;28;3998;-78
2022/12/18 03:04:43;;;;;;;;;;;;;;;6.34;69.24;100420.00;4960105;28;4064;-78
2022/12/18 03:07:09;;;;;;;;;;;;;;;6.31;68.99;100417.72;4949356;28;4080;-80
2022/12/18 03:09:36;;;;;;;;;;;;;;;6.22;69.89;100412.72;4941414;28;4125;-78
2022/12/18 03:14:46;;;;;;;;;;;;;;;6.13;69.79;100412.88;4962577;28;4070;-78
2022/12/18 03:17:12;;;;;;;;;;;;;;;6.27;69.41;100411.13;4959132;28;4060;-79
2022/12/18 03:19:39;;;;;;;;;;;;;;;6.30;69.60;100412.59;4960509;28;4470;-79
2022/12/18 03:22:06;;;;;;;;;;;;;;;6.22;69.51;100408.19;4963468;28;4596;-78
2022/12/18 03:24:32;;;;;;;;;;;;;;;6.31;69.36;100420.41;4958184;28;4181;-78
2022/12/18 03:27:00;;;;;;;;;;;;;;;6.19;69.78;100413.13;4949372;28;4136;-79
2022/12/18 03:29:26;;;;;;;;;;;;;;;6.25;69.81;100415.00;4962272;28;4202;-79
2022/12/18 03:31:53;;;;;;;;;;;;;;;6.18;69.78;100404.28;4946994;28;4209;-78
2022/12/18 03:34:19;;;;;;;;;;;;;;;6.18;70.00;100400.75;4940610;28;4129;-78
2022/12/18 03:36:45;;;;;;;;;;;;;;;6.26;69.74;100414.81;4956200;28;4129;-79
2022/12/18 03:39:12;;;;;;;;;;;;;;;6.32;69.33;100415.88;4961322;28;4134;-79
2022/12/18 03:41:38;;;;;;;;;;;;;;;6.18;69.92;100414.13;4960116;28;4137;-79
2022/12/18 03:44:04;;;;;;;;;;;;;;;6.21;69.68;100403.06;4942650;28;4163;-79
2022/12/18 03:46:30;;;;;;;;;;;;;;;6.08;69.99;100401.09;4945542;28;4141;-79
2022/12/18 03:48:57;;;;;;;;;;;;;;;6.20;70.08;100401.38;4941274;28;5393;-78
2022/12/18 03:51:23;;;;;;;;;;;;;;;6.23;69.99;100417.03;4956441;28;4086;-79
2022/12/18 03:53:49;;;;;;;;;;;;;;;6.13;70.03;100415.53;4942935;28;4194;-79
2022/12/18 03:56:15;;;;;;;;;;;;;;;6.06;70.46;100417.34;4962418;28;4308;-78
2022/12/18 03:58:42;;;;;;;;;;;;;;;6.08;70.33;100417.97;4944283;28;4069;-78
2022/12/18 04:01:08;;;;;;;;;;;;;;;6.12;70.26;100418.44;4959795;28;4763;-79
2022/12/18 04:03:34;;;;;;;;;;;;;;;6.18;70.13;100416.78;4959704;28;3894;-79
2022/12/18 04:06:01;;;;;;;;;;;;;;;6.12;69.94;100407.72;4956312;28;4200;-78
2022/12/18 04:08:27;;;;;;;;;;;;;;;6.14;70.18;100411.00;4962531;28;4282;-78
2022/12/18 04:10:53;;;;;;;;;;;;;;;6.18;70.06;100422.16;4956128;28;4198;-78
2022/12/18 04:13:19;;;;;;;;;;;;;;;6.16;70.25;100421.53;4960134;28;4165;-78
2022/12/18 04:15:46;;;;;;;;;;;;;;;6.19;70.23;100419.28;4957606;28;4082;-79
2022/12/18 04:18:12;;;;;;;;;;;;;;;6.18;69.82;100414.13;4945474;28;4452;-78
2022/12/18 04:20:38;;;;;;;;;;;;;;;6.14;70.24;100411.00;4938914;28;4141;-78
2022/12/18 04:23:05;;;;;;;;;;;;;;;6.13;70.11;100420.88;4941106;28;4120;-79
2022/12/18 04:25:33;;;;;;;;;;;;;;;6.08;70.32;100419.81;4942968;28;4089;-79
2022/12/18 04:27:59;;;;;;;;;;;;;;;6.13;70.29;100420.06;4963390;28;4150;-79
2022/12/18 04:30:25;;;;;;;;;;;;;;;6.09;70.31;100424.97;4956213;28;4118;-79
2022/12/18 04:32:51;;;;;;;;;;;;;;;6.09;70.59;100435.69;4957902;28;3859;-78
2022/12/18 04:35:18;;;;;;;;;;;;;;;6.03;70.46;100431.09;4943736;29;3905;-79
2022/12/18 04:37:44;;;;;;;;;;;;;;;6.23;69.85;100438.44;4933040;29;3713;-79
2022/12/18 04:40:10;;;;;;;;;;;;;;;6.17;70.44;100437.38;4942524;28;3871;-79
2022/12/18 04:42:37;;;;;;;;;;;;;;;6.17;70.41;100425.84;4937868;29;4067;-79
2022/12/18 04:45:03;;;;;;;;;;;;;;;6.16;70.17;100427.69;4955263;28;3982;-78
2022/12/18 04:47:29;;;;;;;;;;;;;;;6.15;70.38;100423.38;4938684;28;4267;-79
2022/12/18 04:49:55;;;;;;;;;;;;;;;6.11;70.42;100422.09;4941944;28;4290;-78
2022/12/18 04:52:22;;;;;;;;;;;;;;;6.12;70.44;100432.63;4955211;28;4059;-79
2022/12/18 04:54:48;;;;;;;;;;;;;;;6.10;70.47;100426.63;4935752;29;4190;-79
2022/12/18 04:57:14;;;;;;;;;;;;;;;6.17;70.02;100425.84;4936337;29;4264;-79
2022/12/18 04:59:40;;;;;;;;;;;;;;;6.12;70.20;100427.28;5002670;23;4224;-80
2022/12/18 05:02:07;;;;;;;;;;;;;;;6.05;70.65;100423.69;4963085;28;4081;-79
2022/12/18 05:04:33;;;;;;;;;;;;;;;5.90;70.88;100418.41;4960958;28;4104;-79
2022/12/18 05:06:59;;;;;;;;;;;;;;;6.02;70.51;100420.59;4960304;28;4102;-80
2022/12/18 05:09:26;;;;;;;;;;;;;;;6.16;70.25;100414.34;4959804;28;3997;-79
2022/12/18 05:11:52;;;;;;;;;;;;;;;6.00;70.80;100422.63;4957086;28;3991;-80
2022/12/18 05:14:18;;;;;;;;;;;;;;;5.92;71.10;100421.72;4965039;28;4092;-80
2022/12/18 05:16:44;;;;;;;;;;;;;;;5.85;71.66;100428.00;4963535;28;3890;-80
2022/12/18 05:19:11;;;;;;;;;;;;;;;6.02;71.02;100415.25;4962063;28;4083;-79
2022/12/18 05:21:37;;;;;;;;;;;;;;;6.01;70.64;100425.13;4956913;28;4200;-79
2022/12/18 05:24:03;;;;;;;;;;;;;;;6.05;70.49;100430.91;4959137;28;4224;-80
2022/12/18 05:26:30;;;;;;;;;;;;;;;5.98;70.52;100438.03;4963718;28;4107;-79
2022/12/18 05:28:56;;;;;;;;;;;;;;;5.95;70.87;100428.56;4960841;28;4297;-80
2022/12/18 05:31:22;;;;;;;;;;;;;;;5.94;70.64;100424.22;4964042;28;4270;-80
2022/12/18 05:33:50;;;;;;;;;;;;;;;6.05;70.32;100434.38;4964191;28;4188;-80
2022/12/18 05:36:16;;;;;;;;;;;;;;;6.01;70.34;100446.50;4955866;28;4125;-80
2022/12/18 05:38:43;;;;;;;;;;;;;;;6.02;70.74;100452.66;4949517;28;3879;-80
2022/12/18 05:41:09;;;;;;;;;;;;;;;5.96;70.69;100453.44;4940393;29;4341;-80
2022/12/18 05:43:36;;;;;;;;;;;;;;;5.96;70.71;100458.78;4946984;29;4084;-81
2022/12/18 05:46:02;;;;;;;;;;;;;;;6.08;70.86;100460.75;4945434;28;4090;-80
2022/12/18 05:48:29;;;;;;;;;;;;;;;5.92;70.70;100452.97;4942253;28;4105;-80
2022/12/18 05:50:55;;;;;;;;;;;;;;;6.01;70.99;100459.06;4943470;29;4229;-80
2022/12/18 05:53:21;;;;;;;;;;;;;;;6.00;70.76;100460.91;4943543;29;4272;-80
2022/12/18 05:55:47;;;;;;;;;;;;;;;6.04;70.41;100467.50;4946158;29;4124;-81
2022/12/18 05:58:14;;;;;;;;;;;;;;;5.98;70.92;100470.94;4941968;29;4180;-80
2022/12/18 06:00:40;;;;;;;;;;;;;;;6.02;70.67;100471.38;4957537;28;4044;-79
2022/12/18 06:03:06;;;;;;;;;;;;;;;6.04;70.69;100486.22;4948457;28;3974;-81
2022/12/18 06:05:33;;;;;;;;;;;;;;;6.04;70.77;100482.72;4936851;28;4116;-80
2022/12/18 06:07:59;;;;;;;;;;;;;;;6.09;70.63;100483.00;4946902;28;4201;-80
2022/12/18 06:10:25;;;;;;;;;;;;;;;5.96;70.75;100488.19;4942416;28;4333;-80
2022/12/18 06:12:52;;;;;;;;;;;;;;;5.93;70.90;100494.75;4956743;28;4185;-80
2022/12/18 06:15:18;;;;;;;;;;;;;;;6.04;70.68;100496.91;4954814;28;4179;-80
2022/12/18 06:17:44;;;;;;;;;;;;;;;6.03;70.91;100489.06;4956164;28;3912;-82
2022/12/18 06:20:11;;;;;;;;;;;;;;;6.11;70.72;100494.31;4956258;28;4288;-80
2022/12/18 06:22:37;;;;;;;;;;;;;;;6.10;70.20;100492.66;4953958;28;4306;-80
2022/12/18 06:25:03;;;;;;;;;;;;;;;5.98;70.55;100494.19;4939411;28;4416;-79
2022/12/18 06:27:30;;;;;;;;;;;;;;;5.99;70.73;100502.00;4947706;28;4333;-80
2022/12/18 06:29:56;;;;;;;;;;;;;;;6.15;70.68;100508.97;4950161;28;4395;-79
2022/12/18 06:32:23;;;;;;;;;;;;;;;6.06;70.50;100507.41;4944351;28;4688;-79
2022/12/18 06:34:49;;;;;;;;;;;;;;;6.01;70.99;100523.22;4953219;28;4347;-79
2022/12/18 06:37:16;;;;;;;;;;;;;;;6.03;70.63;100529.19;4955095;28;4220;-79
2022/12/18 06:39:42;;;;;;;;;;;;;;;6.02;70.55;100519.50;4955559;28;4620;-77
2022/12/18 06:42:08;;;;;;;;;;;;;;;6.00;70.73;100516.19;4938473;28;4181;-78
2022/12/18 06:44:35;;;;;;;;;;;;;;;6.06;70.71;100515.44;4956393;28;4368;-79
2022/12/18 06:47:01;;;;;;;;;;;;;;;5.97;70.92;100505.88;4951379;28;4200;-78
2022/12/18 06:49:27;;;;;;;;;;;;;;;6.06;70.64;100504.72;4951892;28;4262;-79
2022/12/18 06:51:54;;;;;;;;;;;;;;;5.94;70.82;100506.25;4933514;28;4285;-78
2022/12/18 06:54:20;;;;;;;;;;;;;;;5.94;70.92;100506.25;4949479;28;4687;-78
2022/12/18 06:56:47;;;;;;;;;;;;;;;6.02;70.49;100506.16;4955010;28;4339;-79
2022/12/18 06:59:14;;;;;;;;;;;;;;;5.96;70.96;100514.94;4954113;28;4318;-79
2022/12/18 07:01:40;;;;;;;;;;;;;;;5.95;70.95;100518.63;4933711;28;4729;-79
2022/12/18 07:04:07;;;;;;;;;;;;;;;6.00;70.93;100514.38;4934020;28;4429;-78
2022/12/18 07:06:33;;;;;;;;;;;;;;;6.03;70.91;100529.19;4952433;28;4324;-79
2022/12/18 07:09:00;;;;;;;;;;;;;;;5.96;71.13;100523.78;4950314;28;4334;-79
2022/12/18 07:11:26;;;;;;;;;;;;;;;5.97;70.88;100525.44;4952129;28;4274;-79
2022/12/18 07:13:53;;;;;;;;;;;;;;;6.01;70.66;100525.88;4937534;28;4347;-78
2022/12/18 07:16:19;;;;;;;;;;;;;;;5.92;70.89;100525.97;4953123;28;4208;-78
2022/12/18 07:18:45;;;;;;;;;;;;;;;5.95;70.93;100529.31;4950523;28;4257;-79
2022/12/18 07:21:12;;;;;;;;;;;;;;;5.96;71.24;100528.28;4937071;28;4802;-79
2022/12/18 07:23:38;;;;;;;;;;;;;;;5.97;70.84;100533.47;4949725;28;4360;-79
2022/12/18 07:26:05;;;;;;;;;;;;;;;5.99;70.72;100541.28;4952681;28;4255;-79
2022/12/18 07:28:31;;;;;;;;;;;;;;;5.98;70.93;100531.63;4952469;28;4471;-78
2022/12/18 07:30:58;;;;;;;;;;;;;;;5.89;71.27;100531.69;4930699;28;4144;-78
2022/12/18 07:33:24;;;;;;;;;;;;;;;5.96;70.89;100531.78;4950915;28;4306;-79
2022/12/18 07:35:51;;;;;;;;;;;;;;;5.90;71.16;100522.66;4932194;28;4434;-77
2022/12/18 07:38:18;;;;;;;;;;;;;;;5.94;70.80;100535.66;4946115;28;4196;-78
2022/12/18 07:40:44;;;;;;;;;;;;;;;5.94;71.02;100541.84;4952317;28;4112;-78
2022/12/18 07:43:11;;;;;;;;;;;;;;;5.92;71.13;100543.88;4946558;28;4117;-78
2022/12/18 07:45:37;;;;;;;;;;;;;;;5.92;70.85;100542.00;4954551;28;4509;-79
2022/12/18 07:48:03;;;;;;;;;;;;;;;5.95;71.21;100543.50;4958472;28;4109;-79
2022/12/18 07:50:30;;;;;;;;;;;;;;;5.97;70.87;100551.31;4938720;28;4063;-78
2022/12/18 07:52:56;;;;;;;;;;;;;;;5.92;71.07;100544.69;4956692;28;4107;-79
2022/12/18 07:55:22;;;;;;;;;;;;;;;5.88;71.20;100550.59;4957390;28;4005;-79
2022/12/18 07:57:49;;;;;;;;;;;;;;;5.83;71.45;100559.19;4957303;28;4167;-79
2022/12/18 08:00:15;;;;;;;;;;;;;;;5.88;71.39;100562.13;4942285;28;4247;-78
2022/12/18 08:02:42;;;;;;;;;;;;;;;5.85;71.62;100558.97;4957716;28;4076;-80
2022/12/18 08:05:08;;;;;;;;;;;;;;;5.94;70.94;100555.22;4952724;28;4183;-79
2022/12/18 08:07:35;;;;;;;;;;;;;;;5.86;71.17;100566.84;4939194;28;4177;-78
2022/12/18 08:10:01;;;;;;;;;;;;;;;5.94;71.23;100559.72;4961957;28;4142;-78
2022/12/18 08:12:27;;;;;;;;;;;;;;;6.03;70.78;100575.47;4957975;28;3948;-78
2022/12/18 08:14:53;;;;;;;;;;;;;;;5.89;70.87;100579.81;4964811;28;4116;-78
2022/12/18 08:17:20;;;;;;;;;;;;;;;5.89;71.12;100582.50;4961499;28;4188;-78
2022/12/18 08:19:46;;;;;;;;;;;;;;;5.99;71.07;100592.09;4965601;28;4315;-79
2022/12/18 08:22:12;;;;;;;;;;;;;;;5.85;71.48;100593.72;4964362;28;4099;-78
2022/12/18 08:24:39;;;;;;;;;;;;;;;5.84;70.77;100600.09;4965215;28;4342;-78
2022/12/18 08:27:05;;;;;;;;;;;;;;;5.87;70.94;100597.88;4958742;28;4310;-79
2022/12/18 08:29:31;;;;;;;;;;;;;;;5.88;71.13;100604.06;4962277;28;4475;-78
2022/12/18 08:31:58;;;;;;;;;;;;;;;5.94;71.14;100599.81;4960358;28;4178;-78
2022/12/18 08:34:24;;;;;;;;;;;;;;;5.96;70.91;100603.97;4959668;28;4211;-78
2022/12/18 08:36:50;;;;;;;;;;;;;;;5.82;71.12;100602.13;4964780;28;4080;-81
2022/12/18 08:39:16;;;;;;;;;;;;;;;5.95;70.89;100606.84;4942172;28;4130;-77
2022/12/18 08:44:36;;;;;;;;;;;;;;;5.87;71.34;100605.06;4944896;28;4538;-77
2022/12/18 08:44:37;;;;;;;;;;;;;;;5.85;71.16;100601.75;4963415;28;4270;-77
2022/12/18 08:47:03;;;;;;;;;;;;;;;5.89;71.35;100605.72;4958939;28;4261;-77
2022/12/18 08:49:30;;;;;;;;;;;;;;;5.90;71.06;100618.06;4961878;28;4493;-77
2022/12/18 08:51:56;;;;;;;;;;;;;;;5.97;71.16;100619.03;4961791;28;4296;-80
2022/12/18 08:54:23;;;;;;;;;;;;;;;5.83;71.47;100627.84;4963087;28;4212;-78
2022/12/18 08:56:49;;;;;;;;;;;;;;;5.84;71.34;100641.03;4943366;28;4445;-78
2022/12/18 08:59:16;;;;;;;;;;;;;;;5.92;71.15;100651.63;4963361;28;4120;-78
2022/12/18 09:01:42;;;;;;;;;;;;;;;5.87;71.03;100661.22;4957248;28;4159;-78
2022/12/18 09:04:09;;;;;;;;;;;;;;;5.87;71.54;100669.22;4962010;28;4267;-79
2022/12/18 09:06:35;;;;;;;;;;;;;;;5.85;71.34;100653.41;4941595;28;4152;-77
2022/12/18 09:09:01;;;;;;;;;;;;;;;5.77;71.85;100666.03;4941816;28;4231;-79
2022/12/18 09:11:27;;;;;;;;;;;;;;;5.79;71.47;100670.16;4963491;28;4896;-78
2022/12/18 09:13:54;;;;;;;;;;;;;;;5.81;71.52;100675.31;4961941;28;4210;-79
2022/12/18 09:16:20;;;;;;;;;;;;;;;5.78;71.74;100670.34;4960783;28;4200;-81
2022/12/18 09:18:47;;;;;;;;;;;;;;;5.79;71.71;100686.19;4960877;28;4221;-80
2022/12/18 09:21:13;;;;;;;;;;;;;;;5.85;71.53;100679.28;4947786;28;4790;-78
2022/12/18 09:23:39;;;;;;;;;;;;;;;5.77;71.68;100679.38;4943700;28;4199;-77
2022/12/18 09:26:05;;;;;;;;;;;;;;;5.77;71.43;100684.75;4944807;28;4693;-79
2022/12/18 09:28:32;;;;;;;;;;;;;;;5.73;71.59;100686.09;4964764;28;4215;-77
2022/12/18 09:30:58;;;;;;;;;;;;;;;5.77;71.51;100690.09;4960681;28;4153;-80
2022/12/18 09:33:24;;;;;;;;;;;;;;;5.72;72.03;100698.63;4946038;28;4149;-80
2022/12/18 09:35:51;;;;;;;;;;;;;;;5.67;72.24;100695.69;4942987;28;4383;-78
2022/12/18 09:38:17;;;;;;;;;;;;;;;5.67;72.00;100701.03;4944693;28;4061;-81
2022/12/18 09:40:44;;;;;;;;;;;;;;;5.66;72.20;100694.84;4963007;28;4065;-79
2022/12/18 09:43:10;;;;;;;;;;;;;;;5.76;71.91;100691.06;4959980;28;4105;-78
2022/12/18 09:45:36;;;;;;;;;;;;;;;5.80;71.59;100705.75;4960782;28;4045;-79
2022/12/18 09:48:02;;;;;;;;;;;;;;;5.76;71.62;100713.28;4944775;28;4582;-79
2022/12/18 09:50:29;;;;;;;;;;;;;;;5.78;71.57;100715.78;4964476;28;4422;-79
2022/12/18 09:52:55;;;;;;;;;;;;;;;5.67;71.60;100727.75;4957990;28;4206;-78
2022/12/18 09:55:22;;;;;;;;;;;;;;;5.70;72.09;100746.09;4958430;28;4513;-78
2022/12/18 09:57:48;;;;;;;;;;;;;;;5.68;72.08;100746.28;4963536;28;4047;-79
2022/12/18 10:00:14;;;;;;;;;;;;;;;5.57;72.50;100744.06;4957166;28;4176;-78
2022/12/18 10:02:40;;;;;;;;;;;;;;;5.60;72.46;100743.69;4961265;28;4102;-78
2022/12/18 10:05:07;;;;;;;;;;;;;;;5.69;71.94;100747.13;4959327;28;3998;-79
2022/12/18 10:07:33;;;;;;;;;;;;;;;5.65;72.18;100753.84;4962428;28;5700;-78
2022/12/18 10:09:59;;;;;;;;;;;;;;;5.60;72.08;100745.53;4965157;28;4148;-78
2022/12/18 10:12:26;;;;;;;;;;;;;;;5.60;72.21;100748.22;4963821;28;4196;-79
2022/12/18 10:14:52;;;;;;;;;;;;;;;5.56;72.53;100753.09;4963088;28;4274;-78
2022/12/18 10:17:18;;;;;;;;;;;;;;;5.61;72.10;100750.69;4949374;28;4064;-78
2022/12/18 10:19:48;;;;;;;;;;;;;;;5.55;72.75;100759.44;4949549;28;4215;-79
2022/12/18 10:22:15;;;;;;;;;;;;;;;5.53;72.44;100769.50;4963563;28;4077;-79
2022/12/18 10:24:41;;;;;;;;;;;;;;;5.56;72.71;100762.94;4946333;28;4286;-78
2022/12/18 10:27:08;;;;;;;;;;;;;;;5.50;72.76;100777.00;4968345;28;4383;-78
2022/12/18 10:29:34;;;;;;;;;;;;;;;5.48;72.97;100790.56;4965269;28;4636;-78
2022/12/18 10:32:01;;;;;;;;;;;;;;;5.59;72.41;100783.94;4962815;28;4116;-77
2022/12/18 10:34:27;;;;;;;;;;;;;;;5.52;72.71;100785.69;4966834;28;4239;-78
2022/12/18 10:36:53;;;;;;;;;;;;;;;5.46;73.08;100795.25;4961939;28;3990;-78
2022/12/18 10:39:19;;;;;;;;;;;;;;;5.52;72.78;100807.88;4947516;28;4551;-79
2022/12/18 10:41:46;;;;;;;;;;;;;;;5.49;73.00;100820.78;4963771;28;4146;-79
2022/12/18 10:44:12;;;;;;;;;;;;;;;5.54;72.89;100818.41;4963360;28;4197;-79
2022/12/18 10:46:38;;;;;;;;;;;;;;;5.44;72.95;100827.50;4966435;28;4777;-78
2022/12/18 10:49:05;;;;;;;;;;;;;;;5.51;72.95;100830.28;4961240;28;4188;-78
2022/12/18 10:51:33;;;;;;;;;;;;;;;5.44;73.16;100832.00;4964129;28;4164;-79
2022/12/18 10:53:59;;;;;;;;;;;;;;;5.56;72.60;100827.91;4962808;28;4241;-78
2022/12/18 10:56:25;;;;;;;;;;;;;;;5.58;72.47;100839.22;4946882;28;4403;-77
2022/12/18 10:58:52;;;;;;;;;;;;;;;5.49;73.05;100842.16;4964866;28;4121;-77
2022/12/18 11:01:19;;;;;;;;;;;;;;;5.53;73.00;100854.13;4963712;28;4149;-80
2022/12/18 11:03:46;;;;;;;;;;;;;;;5.47;73.17;100851.19;4964719;28;4117;-78
2022/12/18 11:06:12;;;;;;;;;;;;;;;5.44;73.36;100850.69;4962597;28;4069;-77
2022/12/18 11:08:38;;;;;;;;;;;;;;;5.41;73.57;100843.91;4962436;28;4619;-76
2022/12/18 11:11:04;;;;;;;;;;;;;;;5.36;73.65;100846.25;4966112;28;4129;-78
2022/12/18 11:13:31;;;;;;;;;;;;;;;5.43;73.46;100843.69;4964729;28;4289;-77
2022/12/18 11:15:57;;;;;;;;;;;;;;;5.40;73.44;100844.06;4967317;28;4148;-77
2022/12/18 11:18:23;;;;;;;;;;;;;;;5.34;73.97;100839.44;4946784;28;4317;-80
2022/12/18 11:20:50;;;;;;;;;;;;;;;5.42;73.55;100858.06;4964608;28;4097;-80
2022/12/18 11:23:16;;;;;;;;;;;;;;;5.36;73.54;100843.59;4942749;28;4168;-79
2022/12/18 11:25:42;;;;;;;;;;;;;;;5.47;73.49;100856.53;4965475;28;4339;-79
2022/12/18 11:28:08;;;;;;;;;;;;;;;5.36;73.62;100864.97;4965675;28;4553;-79
2022/12/18 11:30:35;;;;;;;;;;;;;;;5.34;73.79;100876.81;4960791;28;4245;-79
2022/12/18 11:33:01;;;;;;;;;;;;;;;5.39;73.71;100883.31;4964062;28;4061;-79
2022/12/18 11:35:28;;;;;;;;;;;;;;;5.34;73.84;100877.66;4964193;28;4113;-79
2022/12/18 11:37:57;;;;;;;;;;;;;;;5.36;73.67;100894.34;4964141;28;4163;-79
2022/12/18 11:40:23;;;;;;;;;;;;;;;5.35;73.81;100889.16;4960309;28;4107;-79
2022/12/18 11:42:49;;;;;;;;;;;;;;;5.35;73.60;100899.84;4946016;28;4146;-79
2022/12/18 11:45:16;;;;;;;;;;;;;;;5.33;73.79;100899.22;4966253;28;4051;-78
2022/12/18 11:47:42;;;;;;;;;;;;;;;5.30;73.72;100897.72;4962806;28;4241;-79
2022/12/18 11:50:08;;;;;;;;;;;;;;;5.29;73.99;100900.56;4963888;28;4161;-80
2022/12/18 11:52:35;;;;;;;;;;;;;;;5.28;74.19;100909.59;4963583;28;4045;-80
2022/12/18 11:55:01;;;;;;;;;;;;;;;5.25;74.41;100902.75;4959437;28;4093;-79
2022/12/18 11:57:27;;;;;;;;;;;;;;;5.25;74.29;100916.09;4942558;28;4115;-79
2022/12/18 11:59:53;;;;;;;;;;;;;;;5.27;74.25;100930.13;4962072;28;4090;-79
2022/12/18 12:02:20;;;;;;;;;;;;;;;5.28;74.26;100933.63;4965087;28;4203;-79
2022/12/18 12:04:46;;;;;;;;;;;;;;;5.29;74.21;100935.28;4962645;28;4177;-79
2022/12/18 12:07:12;;;;;;;;;;;;;;;5.29;74.30;100937.94;4943622;28;4227;-79
2022/12/18 12:09:39;;;;;;;;;;;;;;;5.27;74.34;100945.31;4958914;28;4186;-78
2022/12/18 12:12:05;;;;;;;;;;;;;;;5.27;74.35;100950.66;4944785;28;4067;-78
2022/12/18 12:14:31;;;;;;;;;;;;;;;5.27;74.59;100962.19;4947717;28;4126;-80
2022/12/18 12:16:57;;;;;;;;;;;;;;;5.27;74.42;100964.00;4963847;28;4129;-78
2022/12/18 12:19:24;;;;;;;;;;;;;;;5.23;74.77;100974.19;4963034;28;4403;-78
2022/12/18 12:21:50;;;;;;;;;;;;;;;5.23;74.65;100983.06;4966137;28;4237;-79
2022/12/18 12:24:16;;;;;;;;;;;;;;;5.23;74.57;100979.53;4962467;28;4620;-79
2022/12/18 12:26:43;;;;;;;;;;;;;;;5.24;74.50;100984.72;4963458;28;4210;-78
2022/12/18 12:29:09;;;;;;;;;;;;;;;5.23;74.46;100993.75;4944641;28;4623;-78
2022/12/18 12:31:35;;;;;;;;;;;;;;;5.23;74.70;100996.41;4947126;28;4330;-79
2022/12/18 12:34:01;;;;;;;;;;;;;;;5.25;74.62;101006.91;4960621;28;4415;-78
2022/12/18 12:36:28;;;;;;;;;;;;;;;5.23;74.71;101003.56;4961428;28;4345;-79
2022/12/18 12:38:54;;;;;;;;;;;;;;;5.21;74.75;101006.44;4963442;28;4255;-78
2022/12/18 12:44:10;;;;;;;;;;;;;;;5.26;74.71;101016.56;4907741;28;4356;-79
2022/12/18 12:46:36;;;;;;;;;;;;;;;5.24;74.51;101019.44;4958259;28;4026;-78
2022/12/18 12:49:02;;;;;;;;;;;;;;;5.24;74.65;101024.78;4958225;28;4204;-79
2022/12/18 12:51:28;;;;;;;;;;;;;;;4.88;74.79;100981.69;4958863;28;4292;-79
2022/12/18 12:53:55;;;;;;;;;;;;;;;5.21;75.09;101045.66;4942159;28;4724;-79
2022/12/18 12:56:21;;;;;;;;;;;;;;;5.21;74.57;101053.66;4962048;28;4285;-79
2022/12/18 12:58:48;;;;;;;;;;;;;;;5.24;75.17;101061.34;4946938;28;4318;-79
2022/12/18 13:01:14;;;;;;;;;;;;;;;5.23;75.18;101055.16;4964474;28;4205;-79
2022/12/18 13:03:40;;;;;;;;;;;;;;;5.24;74.68;101072.03;4948875;28;4713;-79